Time,TemperatureF,DewpointF,PressureIn,WindDirection,WindDirectionDegrees,WindSpeedMPH,WindSpeedGustMPH,Humidity,HourlyPrecipIn,Conditions,Clouds,dailyrainin,SoftwareType,DateUTC
2013-03-18 00:00:00,48.7,44.1,30.10,NNE,25,9.0,9.0,84,0.00,,,0.00,Wunderground v.1.15,2013-03-18 04:00:00,
2013-03-18 00:10:00,48.7,44.1,30.10,ESE,103,8.0,18.0,84,0.00,,,0.00,Wunderground v.1.15,2013-03-18 04:10:00,
2013-03-18 00:15:00,48.7,43.8,30.10,East,94,8.0,18.0,83,0.00,,,0.00,Wunderground v.1.15,2013-03-18 04:15:00,
2013-03-18 00:20:00,48.7,44.1,30.10,East,99,9.0,9.0,84,0.00,,,0.00,Wunderground v.1.15,2013-03-18 04:20:00,
2013-03-18 00:25:00,48.6,43.7,30.10,NE,50,9.0,18.0,83,0.00,,,0.00,Wunderground v.1.15,2013-03-18 04:25:00,
2013-03-18 00:30:00,48.7,44.1,30.10,East,85,8.0,8.0,84,0.00,,,0.00,Wunderground v.1.15,2013-03-18 04:30:00,
2013-03-18 00:35:00,48.7,43.8,30.10,ENE,72,8.0,14.0,83,0.00,,,0.00,Wunderground v.1.15,2013-03-18 04:35:00,
2013-03-18 00:40:00,48.6,43.7,30.10,NE,36,9.0,9.0,83,0.00,,,0.00,Wunderground v.1.15,2013-03-18 04:40:00,
2013-03-18 00:45:00,48.5,43.6,30.10,NE,50,8.0,18.0,83,0.00,,,0.00,Wunderground v.1.15,2013-03-18 04:45:00,
2013-03-18 00:50:00,48.4,43.5,30.10,ENE,74,8.0,8.0,83,0.00,,,0.00,Wunderground v.1.15,2013-03-18 04:50:00,
2013-03-18 00:55:00,48.4,43.5,30.10,NE,56,9.0,9.0,83,0.00,,,0.00,Wunderground v.1.15,2013-03-18 04:55:00,
2013-03-18 01:00:00,48.4,43.8,30.11,NE,49,8.0,18.0,84,0.00,,,0.00,Wunderground v.1.15,2013-03-18 05:00:00,
2013-03-18 01:05:00,48.4,43.8,30.11,NE,50,7.0,18.0,84,0.00,,,0.00,Wunderground v.1.15,2013-03-18 05:05:00,
2013-03-18 01:10:00,48.3,43.7,30.11,ESE,102,8.0,18.0,84,0.00,,,0.00,Wunderground v.1.15,2013-03-18 05:10:00,
2013-03-18 01:15:00,48.3,43.7,30.10,ENE,64,8.0,18.0,84,0.00,,,0.00,Wunderground v.1.15,2013-03-18 05:15:00,
2013-03-18 01:20:00,48.3,43.7,30.10,ENE,60,8.0,18.0,84,0.00,,,0.00,Wunderground v.1.15,2013-03-18 05:20:00,
2013-03-18 01:25:00,48.3,43.7,30.10,ENE,77,7.0,18.0,84,0.00,,,0.00,Wunderground v.1.15,2013-03-18 05:25:00,
2013-03-18 01:30:00,48.2,43.6,30.10,NE,51,6.0,18.0,84,0.00,,,0.00,Wunderground v.1.15,2013-03-18 05:30:00,
2013-03-18 01:35:00,48.1,43.5,30.10,North,11,6.0,18.0,84,0.00,,,0.00,Wunderground v.1.15,2013-03-18 05:35:00,
2013-03-18 01:40:00,48.1,43.8,30.10,North,1,5.0,18.0,85,0.00,,,0.00,Wunderground v.1.15,2013-03-18 05:40:00,
2013-03-18 01:45:00,48.1,43.8,30.10,ENE,76,5.0,18.0,85,0.00,,,0.00,Wunderground v.1.15,2013-03-18 05:45:00,
2013-03-18 01:50:00,48.1,43.8,30.10,East,86,6.0,6.0,85,0.00,,,0.00,Wunderground v.1.15,2013-03-18 05:50:00,
2013-03-18 02:00:00,48.1,43.8,30.09,NNW,340,6.0,15.0,85,0.00,,,0.00,Wunderground v.1.15,2013-03-18 06:00:00,
2013-03-18 02:05:00,48.1,43.8,30.09,East,79,7.0,15.0,85,0.00,,,0.00,Wunderground v.1.15,2013-03-18 06:05:00,
2013-03-18 02:10:00,48.1,44.1,30.10,NE,44,7.0,7.0,86,0.00,,,0.00,Wunderground v.1.15,2013-03-18 06:10:00,
2013-03-18 02:15:00,48.2,44.2,30.09,NE,53,6.0,11.0,86,0.00,,,0.00,Wunderground v.1.15,2013-03-18 06:15:00,
2013-03-18 02:20:00,48.1,44.1,30.09,ENE,74,6.0,15.0,86,0.00,,,0.00,Wunderground v.1.15,2013-03-18 06:20:00,
2013-03-18 02:25:00,48.2,44.2,30.10,NE,40,6.0,15.0,86,0.00,,,0.00,Wunderground v.1.15,2013-03-18 06:25:00,
2013-03-18 02:30:00,48.2,44.2,30.10,East,79,6.0,6.0,86,0.00,,,0.00,Wunderground v.1.15,2013-03-18 06:30:00,
2013-03-18 02:35:00,48.3,44.3,30.09,ESE,122,6.0,15.0,86,0.00,,,0.00,Wunderground v.1.15,2013-03-18 06:35:00,
2013-03-18 02:40:00,48.3,44.3,30.10,NE,39,6.0,6.0,86,0.00,,,0.00,Wunderground v.1.15,2013-03-18 06:40:00,
2013-03-18 02:45:00,48.3,44.3,30.10,ENE,71,6.0,15.0,86,0.00,,,0.00,Wunderground v.1.15,2013-03-18 06:45:00,
2013-03-18 02:50:00,48.3,44.3,30.10,ENE,65,5.0,5.0,86,0.00,,,0.00,Wunderground v.1.15,2013-03-18 06:50:00,
2013-03-18 02:55:00,48.3,44.3,30.09,ENE,60,5.0,6.0,86,0.00,,,0.00,Wunderground v.1.15,2013-03-18 06:55:00,
2013-03-18 03:00:00,48.3,44.3,30.09,ENE,68,6.0,6.0,86,0.00,,,0.00,Wunderground v.1.15,2013-03-18 07:00:00,
2013-03-18 03:05:00,48.4,44.4,30.08,ENE,60,6.0,7.0,86,0.00,,,0.00,Wunderground v.1.15,2013-03-18 07:05:00,
2013-03-18 03:10:00,48.4,44.7,30.08,NE,53,6.0,13.0,87,0.00,,,0.00,Wunderground v.1.15,2013-03-18 07:10:00,
2013-03-18 03:15:00,48.4,44.7,30.08,NE,39,7.0,13.0,87,0.00,,,0.00,Wunderground v.1.15,2013-03-18 07:15:00,
2013-03-18 03:20:00,48.5,44.8,30.08,NE,56,6.0,6.0,87,0.00,,,0.00,Wunderground v.1.15,2013-03-18 07:20:00,
2013-03-18 03:25:00,48.6,44.9,30.08,NE,56,6.0,8.0,87,0.00,,,0.00,Wunderground v.1.15,2013-03-18 07:25:00,
2013-03-18 03:30:00,48.7,45.0,30.08,ENE,70,7.0,13.0,87,0.00,,,0.00,Wunderground v.1.15,2013-03-18 07:30:00,
2013-03-18 03:35:00,48.8,45.1,30.08,NE,54,7.0,13.0,87,0.00,,,0.00,Wunderground v.1.15,2013-03-18 07:35:00,
2013-03-18 03:40:00,48.8,45.1,30.08,ENE,68,6.0,13.0,87,0.00,,,0.00,Wunderground v.1.15,2013-03-18 07:40:00,
2013-03-18 03:45:00,48.8,45.1,30.08,NE,49,6.0,13.0,87,0.00,,,0.00,Wunderground v.1.15,2013-03-18 07:45:00,
2013-03-18 03:50:00,48.8,45.1,30.08,ENE,70,6.0,13.0,87,0.00,,,0.00,Wunderground v.1.15,2013-03-18 07:50:00,
2013-03-18 03:55:00,48.9,45.2,30.08,ENE,70,6.0,13.0,87,0.00,,,0.00,Wunderground v.1.15,2013-03-18 07:55:00,
2013-03-18 04:00:00,49.1,45.4,30.08,ENE,70,7.0,12.0,87,0.00,,,0.00,Wunderground v.1.15,2013-03-18 08:00:00,
2013-03-18 04:05:00,49.1,45.4,30.08,ENE,68,6.0,12.0,87,0.00,,,0.00,Wunderground v.1.15,2013-03-18 08:05:00,
2013-03-18 04:10:00,49.2,45.5,30.08,ENE,65,6.0,6.0,87,0.00,,,0.00,Wunderground v.1.15,2013-03-18 08:10:00,
2013-03-18 04:15:00,49.2,45.5,30.07,ENE,58,7.0,7.0,87,0.00,,,0.00,Wunderground v.1.15,2013-03-18 08:15:00,
2013-03-18 04:20:00,49.3,45.6,30.07,NE,54,7.0,12.0,87,0.00,,,0.00,Wunderground v.1.15,2013-03-18 08:20:00,
2013-03-18 04:25:00,49.3,45.9,30.07,NNE,33,7.0,12.0,88,0.00,,,0.00,Wunderground v.1.15,2013-03-18 08:25:00,
2013-03-18 04:30:00,49.3,45.9,30.07,NNE,32,6.0,12.0,88,0.00,,,0.00,Wunderground v.1.15,2013-03-18 08:30:00,
2013-03-18 04:35:00,49.4,46.0,30.07,NE,41,6.0,12.0,88,0.00,,,0.00,Wunderground v.1.15,2013-03-18 08:35:00,
2013-03-18 04:40:00,49.4,46.0,30.07,ENE,68,5.0,12.0,88,0.00,,,0.00,Wunderground v.1.15,2013-03-18 08:40:00,
2013-03-18 04:45:00,49.3,45.9,30.07,NE,43,4.0,12.0,88,0.00,,,0.00,Wunderground v.1.15,2013-03-18 08:45:00,
2013-03-18 04:50:00,49.3,45.9,30.06,NNE,19,5.0,5.0,88,0.00,,,0.00,Wunderground v.1.15,2013-03-18 08:50:00,
2013-03-18 04:55:00,49.3,45.9,30.06,ENE,70,5.0,12.0,88,0.00,,,0.00,Wunderground v.1.15,2013-03-18 08:55:00,
2013-03-18 05:00:00,49.2,45.8,30.06,ENE,77,4.0,15.0,88,0.00,,,0.00,Wunderground v.1.15,2013-03-18 09:00:00,
2013-03-18 05:10:00,49.2,45.8,30.06,NNE,20,5.0,5.0,88,0.00,,,0.00,Wunderground v.1.15,2013-03-18 09:10:00,
2013-03-18 05:15:00,49.2,45.8,30.06,NE,37,5.0,15.0,88,0.00,,,0.00,Wunderground v.1.15,2013-03-18 09:15:00,
2013-03-18 05:20:00,49.2,45.8,30.06,ENE,65,5.0,15.0,88,0.00,,,0.00,Wunderground v.1.15,2013-03-18 09:20:00,
2013-03-18 05:30:00,49.1,45.7,30.07,NE,46,4.0,4.0,88,0.00,,,0.00,Wunderground v.1.15,2013-03-18 09:30:00,
2013-03-18 05:35:00,49.0,45.6,30.07,ENE,63,4.0,5.0,88,0.00,,,0.00,Wunderground v.1.15,2013-03-18 09:35:00,
2013-03-18 05:40:00,48.9,45.5,30.07,ENE,63,4.0,4.0,88,0.00,,,0.00,Wunderground v.1.15,2013-03-18 09:40:00,
2013-03-18 05:45:00,48.9,45.5,30.07,ENE,57,4.0,15.0,88,0.00,,,0.00,Wunderground v.1.15,2013-03-18 09:45:00,
2013-03-18 05:50:00,48.9,45.5,30.07,NNE,30,4.0,4.0,88,0.00,,,0.00,Wunderground v.1.15,2013-03-18 09:50:00,
2013-03-18 05:55:00,48.9,45.5,30.07,NNE,33,4.0,15.0,88,0.00,,,0.00,Wunderground v.1.15,2013-03-18 09:55:00,
2013-03-18 06:00:00,48.8,45.4,30.07,NNE,22,4.0,9.0,88,0.00,,,0.00,Wunderground v.1.15,2013-03-18 10:00:00,
2013-03-18 06:05:00,48.8,45.4,30.07,NE,39,4.0,9.0,88,0.00,,,0.00,Wunderground v.1.15,2013-03-18 10:05:00,
2013-03-18 06:10:00,48.8,45.4,30.07,ENE,70,4.0,4.0,88,0.00,,,0.00,Wunderground v.1.15,2013-03-18 10:10:00,
2013-03-18 06:15:00,48.9,45.5,30.08,NNE,27,4.0,9.0,88,0.00,,,0.00,Wunderground v.1.15,2013-03-18 10:15:00,
2013-03-18 06:20:00,48.7,45.3,30.08,North,354,4.0,4.0,88,0.00,,,0.00,Wunderground v.1.15,2013-03-18 10:20:00,
2013-03-18 06:25:00,48.6,45.2,30.08,NW,326,4.0,9.0,88,0.00,,,0.00,Wunderground v.1.15,2013-03-18 10:25:00,
2013-03-18 06:30:00,48.7,45.3,30.08,NE,52,4.0,9.0,88,0.00,,,0.00,Wunderground v.1.15,2013-03-18 10:30:00,
2013-03-18 06:35:00,48.7,45.3,30.08,NNE,19,5.0,9.0,88,0.00,,,0.00,Wunderground v.1.15,2013-03-18 10:35:00,
2013-03-18 06:40:00,48.4,45.0,30.08,NNE,20,5.0,9.0,88,0.00,,,0.00,Wunderground v.1.15,2013-03-18 10:40:00,
2013-03-18 06:45:00,48.3,44.9,30.09,NNE,27,6.0,9.0,88,0.00,,,0.00,Wunderground v.1.15,2013-03-18 10:45:00,
2013-03-18 06:50:00,48.2,44.8,30.09,North,9,6.0,9.0,88,0.00,,,0.00,Wunderground v.1.15,2013-03-18 10:50:00,
2013-03-18 06:55:00,48.1,44.7,30.10,NNW,343,6.0,9.0,88,0.00,,,0.00,Wunderground v.1.15,2013-03-18 10:55:00,
2013-03-18 07:00:00,48.1,44.7,30.09,ENE,60,6.0,6.0,88,0.00,,,0.00,Wunderground v.1.15,2013-03-18 11:00:00,
2013-03-18 07:05:00,48.1,44.7,30.09,NNE,19,5.0,8.0,88,0.00,,,0.00,Wunderground v.1.15,2013-03-18 11:05:00,
2013-03-18 07:10:00,48.0,44.6,30.10,NE,46,4.0,8.0,88,0.00,,,0.00,Wunderground v.1.15,2013-03-18 11:10:00,
2013-03-18 07:15:00,48.0,44.6,30.09,NE,36,4.0,8.0,88,0.00,,,0.00,Wunderground v.1.15,2013-03-18 11:15:00,
2013-03-18 07:20:00,48.1,44.7,30.09,ENE,60,4.0,8.0,88,0.00,,,0.00,Wunderground v.1.15,2013-03-18 11:20:00,
2013-03-18 07:25:00,48.1,44.7,30.09,ENE,70,4.0,8.0,88,0.00,,,0.00,Wunderground v.1.15,2013-03-18 11:25:00,
2013-03-18 07:30:00,48.3,44.9,30.10,NE,56,3.0,8.0,88,0.00,,,0.00,Wunderground v.1.15,2013-03-18 11:30:00,
2013-03-18 07:35:00,48.2,44.8,30.10,NNE,16,5.0,8.0,88,0.00,,,0.00,Wunderground v.1.15,2013-03-18 11:35:00,
2013-03-18 07:40:00,48.1,44.7,30.10,NNE,15,6.0,8.0,88,0.00,,,0.00,Wunderground v.1.15,2013-03-18 11:40:00,
2013-03-18 07:45:00,48.1,44.7,30.11,North,11,5.0,8.0,88,0.00,,,0.00,Wunderground v.1.15,2013-03-18 11:45:00,
2013-03-18 07:50:00,48.0,44.6,30.11,ENE,58,6.0,6.0,88,0.00,,,0.00,Wunderground v.1.15,2013-03-18 11:50:00,
2013-03-18 07:55:00,48.0,44.6,30.11,NE,36,6.0,8.0,88,0.00,,,0.00,Wunderground v.1.15,2013-03-18 11:55:00,
2013-03-18 08:00:00,47.9,44.5,30.11,NNE,30,6.0,10.0,88,0.00,,,0.00,Wunderground v.1.15,2013-03-18 12:00:00,
2013-03-18 08:05:00,47.8,44.4,30.10,NNE,29,7.0,10.0,88,0.00,,,0.00,Wunderground v.1.15,2013-03-18 12:05:00,
2013-03-18 08:10:00,47.8,44.4,30.10,NE,46,7.0,10.0,88,0.00,,,0.00,Wunderground v.1.15,2013-03-18 12:10:00,
2013-03-18 08:15:00,47.9,44.5,30.10,ENE,77,6.0,10.0,88,0.00,,,0.00,Wunderground v.1.15,2013-03-18 12:15:00,
2013-03-18 08:20:00,47.9,44.5,30.10,North,354,6.0,6.0,88,0.00,,,0.00,Wunderground v.1.15,2013-03-18 12:20:00,
2013-03-18 08:25:00,48.0,44.6,30.10,NNE,30,5.0,10.0,88,0.00,,,0.00,Wunderground v.1.15,2013-03-18 12:25:00,
2013-03-18 08:30:00,48.0,44.6,30.11,NNE,25,6.0,10.0,88,0.00,,,0.00,Wunderground v.1.15,2013-03-18 12:30:00,
2013-03-18 08:35:00,48.1,44.7,30.11,ENE,74,6.0,10.0,88,0.00,,,0.00,Wunderground v.1.15,2013-03-18 12:35:00,
2013-03-18 08:40:00,48.2,44.8,30.11,NNE,31,6.0,6.0,88,0.00,,,0.00,Wunderground v.1.15,2013-03-18 12:40:00,
2013-03-18 08:45:00,48.3,44.9,30.11,NE,36,6.0,10.0,88,0.00,,,0.00,Wunderground v.1.15,2013-03-18 12:45:00,
2013-03-18 08:50:00,48.4,45.0,30.11,ENE,65,6.0,10.0,88,0.00,,,0.00,Wunderground v.1.15,2013-03-18 12:50:00,
2013-03-18 08:55:00,48.5,45.1,30.11,NNE,25,6.0,10.0,88,0.00,,,0.00,Wunderground v.1.15,2013-03-18 12:55:00,
2013-03-18 09:00:00,48.6,45.2,30.12,NNE,20,6.0,12.0,88,0.00,,,0.00,Wunderground v.1.15,2013-03-18 13:00:00,
2013-03-18 09:05:00,48.6,45.2,30.12,NNW,337,6.0,12.0,88,0.00,,,0.00,Wunderground v.1.15,2013-03-18 13:05:00,
2013-03-18 09:10:00,48.8,45.4,30.12,NNW,336,6.0,12.0,88,0.00,,,0.00,Wunderground v.1.15,2013-03-18 13:10:00,
2013-03-18 09:20:00,49.1,45.7,30.12,ENE,60,4.0,12.0,88,0.00,,,0.00,Wunderground v.1.15,2013-03-18 13:20:00,
2013-03-18 09:25:00,49.2,45.8,30.12,NNE,27,5.0,12.0,88,0.00,,,0.00,Wunderground v.1.15,2013-03-18 13:25:00,
2013-03-18 09:30:00,49.1,45.4,30.11,East,82,6.0,6.0,87,0.00,,,0.00,Wunderground v.1.15,2013-03-18 13:30:00,
2013-03-18 09:35:00,49.0,45.3,30.11,East,100,6.0,12.0,87,0.00,,,0.00,Wunderground v.1.15,2013-03-18 13:35:00,
2013-03-18 09:40:00,49.1,45.7,30.11,NE,52,6.0,12.0,88,0.00,,,0.00,Wunderground v.1.15,2013-03-18 13:40:00,
2013-03-18 09:45:00,49.1,45.4,30.11,ESE,105,6.0,12.0,87,0.00,,,0.00,Wunderground v.1.15,2013-03-18 13:45:00,
2013-03-18 09:50:00,49.2,45.5,30.11,NNE,23,7.0,7.0,87,0.00,,,0.00,Wunderground v.1.15,2013-03-18 13:50:00,
2013-03-18 09:55:00,49.4,45.7,30.11,ENE,72,6.0,12.0,87,0.00,,,0.00,Wunderground v.1.15,2013-03-18 13:55:00,
2013-03-18 10:00:00,49.5,45.8,30.11,North,350,6.0,6.0,87,0.00,,,0.00,Wunderground v.1.15,2013-03-18 14:00:00,
2013-03-18 10:05:00,49.6,45.9,30.11,NW,309,6.0,11.0,87,0.00,,,0.00,Wunderground v.1.15,2013-03-18 14:05:00,
2013-03-18 10:10:00,49.8,46.1,30.11,NNE,15,5.0,5.0,87,0.00,,,0.00,Wunderground v.1.15,2013-03-18 14:10:00,
2013-03-18 10:15:00,49.9,46.2,30.12,NE,50,5.0,11.0,87,0.00,,,0.00,Wunderground v.1.15,2013-03-18 14:15:00,
2013-03-18 10:20:00,49.9,46.2,30.12,ENE,76,5.0,5.0,87,0.00,,,0.00,Wunderground v.1.15,2013-03-18 14:20:00,
2013-03-18 10:25:00,50.2,46.5,30.12,NNW,342,5.0,11.0,87,0.00,,,0.00,Wunderground v.1.15,2013-03-18 14:25:00,
2013-03-18 10:30:00,50.3,46.3,30.12,NE,54,4.0,4.0,86,0.00,,,0.00,Wunderground v.1.15,2013-03-18 14:30:00,
2013-03-18 10:35:00,50.5,46.5,30.12,NE,51,3.0,11.0,86,0.00,,,0.00,Wunderground v.1.15,2013-03-18 14:35:00,
2013-03-18 10:40:00,50.8,46.8,30.11,North,353,4.0,4.0,86,0.00,,,0.00,Wunderground v.1.15,2013-03-18 14:40:00,
2013-03-18 10:45:00,51.4,47.4,30.11,NNE,18,3.0,11.0,86,0.00,,,0.00,Wunderground v.1.15,2013-03-18 14:45:00,
2013-03-18 10:50:00,51.9,47.5,30.11,NNW,340,3.0,11.0,85,0.00,,,0.00,Wunderground v.1.15,2013-03-18 14:50:00,
2013-03-18 10:55:00,51.8,47.1,30.11,NNE,17,4.0,11.0,84,0.00,,,0.00,Wunderground v.1.15,2013-03-18 14:55:00,
2013-03-18 11:00:00,51.9,47.2,30.10,NNE,20,4.0,4.0,84,0.00,,,0.00,Wunderground v.1.15,2013-03-18 15:00:00,
2013-03-18 11:05:00,51.8,47.1,30.10,ENE,60,4.0,6.0,84,0.00,,,0.00,Wunderground v.1.15,2013-03-18 15:05:00,
2013-03-18 11:10:00,51.7,47.0,30.10,East,86,4.0,10.0,84,0.00,,,0.00,Wunderground v.1.15,2013-03-18 15:10:00,
2013-03-18 11:15:00,52.4,48.0,30.10,NNE,30,4.0,10.0,85,0.00,,,0.00,Wunderground v.1.15,2013-03-18 15:15:00,
2013-03-18 11:20:00,52.7,48.0,30.10,North,9,4.0,10.0,84,0.00,,,0.00,Wunderground v.1.15,2013-03-18 15:20:00,
2013-03-18 11:25:00,52.7,48.0,30.10,ENE,73,5.0,10.0,84,0.00,,,0.00,Wunderground v.1.15,2013-03-18 15:25:00,
2013-03-18 11:30:00,53.1,48.4,30.09,NE,44,5.0,10.0,84,0.00,,,0.00,Wunderground v.1.15,2013-03-18 15:30:00,
2013-03-18 11:35:00,53.7,48.7,30.09,ENE,74,5.0,10.0,83,0.00,,,0.00,Wunderground v.1.15,2013-03-18 15:35:00,
2013-03-18 11:40:00,53.9,48.9,30.09,North,1,5.0,10.0,83,0.00,,,0.00,Wunderground v.1.15,2013-03-18 15:40:00,
2013-03-18 11:45:00,54.5,49.1,30.08,ENE,71,5.0,10.0,82,0.00,,,0.00,Wunderground v.1.15,2013-03-18 15:45:00,
2013-03-18 11:50:00,55.1,49.7,30.09,NE,49,4.0,10.0,82,0.00,,,0.00,Wunderground v.1.15,2013-03-18 15:50:00,
2013-03-18 11:55:00,55.3,49.6,30.08,ENE,57,4.0,10.0,81,0.00,,,0.00,Wunderground v.1.15,2013-03-18 15:55:00,
2013-03-18 12:00:00,55.6,49.2,30.08,ESE,117,4.0,9.0,79,0.00,,,0.00,Wunderground v.1.15,2013-03-18 16:00:00,
2013-03-18 12:10:00,53.9,48.9,30.08,SE,127,5.0,9.0,83,0.00,,,0.00,Wunderground v.1.15,2013-03-18 16:10:00,
2013-03-18 12:15:00,53.8,48.8,30.08,SE,124,5.0,9.0,83,0.00,,,0.00,Wunderground v.1.15,2013-03-18 16:15:00,
2013-03-18 12:20:00,53.8,48.8,30.08,ENE,73,5.0,5.0,83,0.00,,,0.00,Wunderground v.1.15,2013-03-18 16:20:00,
2013-03-18 12:25:00,53.7,48.7,30.08,ESE,120,5.0,9.0,83,0.00,,,0.00,Wunderground v.1.15,2013-03-18 16:25:00,
2013-03-18 12:35:00,53.9,49.2,30.08,SE,124,4.0,9.0,84,0.00,,,0.00,Wunderground v.1.15,2013-03-18 16:35:00,
2013-03-18 12:40:00,54.1,49.1,30.08,SSE,148,3.0,9.0,83,0.00,,,0.00,Wunderground v.1.15,2013-03-18 16:40:00,
2013-03-18 12:45:00,54.3,49.2,30.08,SSE,159,3.0,9.0,83,0.00,,,0.00,Wunderground v.1.15,2013-03-18 16:45:00,
2013-03-18 12:50:00,54.4,49.0,30.08,South,172,3.0,9.0,82,0.00,,,0.00,Wunderground v.1.15,2013-03-18 16:50:00,
2013-03-18 12:55:00,54.4,49.3,30.08,SSE,159,3.0,9.0,83,0.00,,,0.00,Wunderground v.1.15,2013-03-18 16:55:00,
2013-03-18 13:00:00,54.5,49.4,30.08,ESE,102,3.0,3.0,83,0.00,,,0.00,Wunderground v.1.15,2013-03-18 17:00:00,
2013-03-18 13:10:00,54.3,49.2,30.07,SE,146,3.0,9.0,83,0.00,,,0.00,Wunderground v.1.15,2013-03-18 17:10:00,
2013-03-18 13:15:00,54.5,49.4,30.07,SE,127,4.0,9.0,83,0.00,,,0.00,Wunderground v.1.15,2013-03-18 17:15:00,
2013-03-18 13:25:00,54.7,49.6,30.06,SE,141,4.0,5.0,83,0.00,,,0.00,Wunderground v.1.15,2013-03-18 17:25:00,
2013-03-18 13:30:00,54.5,49.4,30.06,SE,127,5.0,9.0,83,0.00,,,0.00,Wunderground v.1.15,2013-03-18 17:30:00,
2013-03-18 13:35:00,54.5,49.8,30.05,SE,139,5.0,9.0,84,0.00,,,0.00,Wunderground v.1.15,2013-03-18 17:35:00,
2013-03-18 13:40:00,54.3,49.6,30.05,ESE,114,5.0,9.0,84,0.00,,,0.00,Wunderground v.1.15,2013-03-18 17:40:00,
2013-03-18 13:45:00,54.4,49.7,30.04,ESE,120,5.0,9.0,84,0.00,,,0.00,Wunderground v.1.15,2013-03-18 17:45:00,
2013-03-18 13:50:00,54.4,50.0,30.04,SSE,148,6.0,6.0,85,0.00,,,0.00,Wunderground v.1.15,2013-03-18 17:50:00,
2013-03-18 13:55:00,54.5,50.1,30.04,ESE,104,5.0,9.0,85,0.00,,,0.00,Wunderground v.1.15,2013-03-18 17:55:00,
2013-03-18 14:00:00,54.6,50.2,30.04,SE,134,5.0,7.0,85,0.00,,,0.00,Wunderground v.1.15,2013-03-18 18:00:00,
2013-03-18 14:05:00,54.7,50.3,30.03,SE,141,5.0,7.0,85,0.00,,,0.00,Wunderground v.1.15,2013-03-18 18:05:00,
2013-03-18 14:10:00,54.9,50.5,30.02,SE,131,5.0,7.0,85,0.00,,,0.00,Wunderground v.1.15,2013-03-18 18:10:00,
2013-03-18 14:15:00,54.9,50.5,30.02,ESE,121,5.0,7.0,85,0.00,,,0.00,Wunderground v.1.15,2013-03-18 18:15:00,
2013-03-18 14:20:00,55.1,50.7,30.02,SE,143,5.0,7.0,85,0.00,,,0.00,Wunderground v.1.15,2013-03-18 18:20:00,
2013-03-18 14:25:00,55.3,50.9,30.02,SSW,193,4.0,7.0,85,0.00,,,0.00,Wunderground v.1.15,2013-03-18 18:25:00,
2013-03-18 14:30:00,55.9,51.5,30.02,SE,145,4.0,7.0,85,0.00,,,0.00,Wunderground v.1.15,2013-03-18 18:30:00,
2013-03-18 14:35:00,56.1,51.3,30.01,SSE,156,4.0,7.0,84,0.00,,,0.00,Wunderground v.1.15,2013-03-18 18:35:00,
2013-03-18 14:40:00,56.2,51.7,30.01,ESE,112,4.0,4.0,85,0.00,,,0.00,Wunderground v.1.15,2013-03-18 18:40:00,
2013-03-18 14:45:00,56.7,52.2,30.01,South,188,4.0,7.0,85,0.00,,,0.00,Wunderground v.1.15,2013-03-18 18:45:00,
2013-03-18 14:50:00,57.4,52.6,30.00,SSE,153,3.0,3.0,84,0.00,,,0.00,Wunderground v.1.15,2013-03-18 18:50:00,
2013-03-18 14:55:00,58.0,52.9,30.00,South,174,3.0,4.0,83,0.00,,,0.00,Wunderground v.1.15,2013-03-18 18:55:00,
2013-03-18 15:00:00,58.2,52.7,30.00,SSE,166,3.0,8.0,82,0.00,,,0.00,Wunderground v.1.15,2013-03-18 19:00:00,
2013-03-18 15:05:00,58.5,53.0,30.00,SSE,155,3.0,8.0,82,0.00,,,0.00,Wunderground v.1.15,2013-03-18 19:05:00,
2013-03-18 15:10:00,58.4,52.9,30.00,SSE,163,3.0,3.0,82,0.00,,,0.00,Wunderground v.1.15,2013-03-18 19:10:00,
2013-03-18 15:15:00,58.7,53.2,29.99,South,180,3.0,8.0,82,0.00,,,0.00,Wunderground v.1.15,2013-03-18 19:15:00,
2013-03-18 15:20:00,58.7,53.2,29.99,South,173,2.0,8.0,82,0.00,,,0.00,Wunderground v.1.15,2013-03-18 19:20:00,
2013-03-18 15:25:00,58.7,53.2,29.99,SSW,194,3.0,8.0,82,0.00,,,0.00,Wunderground v.1.15,2013-03-18 19:25:00,
2013-03-18 15:30:00,58.8,53.0,29.99,SW,215,3.0,3.0,81,0.00,,,0.00,Wunderground v.1.15,2013-03-18 19:30:00,
2013-03-18 15:35:00,58.4,52.6,29.98,ESE,120,3.0,5.0,81,0.00,,,0.00,Wunderground v.1.15,2013-03-18 19:35:00,
2013-03-18 15:40:00,57.9,52.4,29.98,SSW,201,4.0,4.0,82,0.00,,,0.00,Wunderground v.1.15,2013-03-18 19:40:00,
2013-03-18 15:45:00,57.7,52.6,29.98,SE,133,4.0,8.0,83,0.00,,,0.00,Wunderground v.1.15,2013-03-18 19:45:00,
2013-03-18 15:50:00,57.7,52.6,29.98,SSE,163,4.0,8.0,83,0.00,,,0.00,Wunderground v.1.15,2013-03-18 19:50:00,
2013-03-18 15:55:00,57.5,52.4,29.97,ESE,121,4.0,8.0,83,0.00,,,0.00,Wunderground v.1.15,2013-03-18 19:55:00,
2013-03-18 16:00:00,56.8,52.0,29.97,SSE,155,5.0,7.0,84,0.00,,,0.00,Wunderground v.1.15,2013-03-18 20:00:00,
2013-03-18 16:05:00,56.7,52.2,29.97,SSE,153,5.0,7.0,85,0.00,,,0.00,Wunderground v.1.15,2013-03-18 20:05:00,
2013-03-18 16:10:00,57.0,52.5,29.97,ESE,102,4.0,4.0,85,0.00,,,0.00,Wunderground v.1.15,2013-03-18 20:10:00,
2013-03-18 16:15:00,57.1,52.3,29.97,ESE,116,4.0,5.0,84,0.00,,,0.00,Wunderground v.1.15,2013-03-18 20:15:00,
2013-03-18 16:20:00,57.2,52.7,29.97,East,82,4.0,4.0,85,0.00,,,0.00,Wunderground v.1.15,2013-03-18 20:20:00,
2013-03-18 16:25:00,57.4,52.9,29.97,South,180,4.0,7.0,85,0.00,,,0.00,Wunderground v.1.15,2013-03-18 20:25:00,
2013-03-18 16:30:00,57.6,52.8,29.97,NNE,27,3.0,3.0,84,0.00,,,0.00,Wunderground v.1.15,2013-03-18 20:30:00,
2013-03-18 16:35:00,57.8,53.0,29.97,SSE,151,3.0,7.0,84,0.00,,,0.00,Wunderground v.1.15,2013-03-18 20:35:00,
2013-03-18 16:40:00,57.6,52.8,29.97,SE,134,3.0,7.0,84,0.00,,,0.00,Wunderground v.1.15,2013-03-18 20:40:00,
2013-03-18 16:45:00,57.1,52.6,29.97,South,177,4.0,7.0,85,0.00,,,0.00,Wunderground v.1.15,2013-03-18 20:45:00,
2013-03-18 16:50:00,56.8,52.3,29.97,SSW,204,5.0,5.0,85,0.00,,,0.00,Wunderground v.1.15,2013-03-18 20:50:00,
2013-03-18 16:55:00,56.6,52.5,29.97,SSW,200,5.0,7.0,86,0.00,,,0.00,Wunderground v.1.15,2013-03-18 20:55:00,
2013-03-18 17:00:00,56.9,52.8,29.97,SSW,211,5.0,8.0,86,0.00,,,0.00,Wunderground v.1.15,2013-03-18 21:00:00,
2013-03-18 17:05:00,56.8,52.3,29.97,SSW,203,5.0,8.0,85,0.00,,,0.00,Wunderground v.1.15,2013-03-18 21:05:00,
2013-03-18 17:10:00,56.7,52.6,29.97,SW,222,6.0,8.0,86,0.00,,,0.00,Wunderground v.1.15,2013-03-18 21:10:00,
2013-03-18 17:15:00,56.6,52.5,29.97,SSE,163,5.0,8.0,86,0.00,,,0.00,Wunderground v.1.15,2013-03-18 21:15:00,
2013-03-18 17:20:00,56.5,52.4,29.96,SSW,208,5.0,8.0,86,0.00,,,0.00,Wunderground v.1.15,2013-03-18 21:20:00,
2013-03-18 17:25:00,56.7,52.6,29.96,SSE,166,4.0,8.0,86,0.00,,,0.00,Wunderground v.1.15,2013-03-18 21:25:00,
2013-03-18 17:30:00,56.8,52.7,29.96,South,182,4.0,8.0,86,0.00,,,0.00,Wunderground v.1.15,2013-03-18 21:30:00,
2013-03-18 17:35:00,56.8,52.7,29.96,South,183,3.0,8.0,86,0.00,,,0.00,Wunderground v.1.15,2013-03-18 21:35:00,
2013-03-18 17:40:00,56.6,52.5,29.96,South,190,3.0,8.0,86,0.00,,,0.00,Wunderground v.1.15,2013-03-18 21:40:00,
2013-03-18 17:45:00,56.1,52.0,29.96,SSW,201,4.0,8.0,86,0.00,,,0.00,Wunderground v.1.15,2013-03-18 21:45:00,
2013-03-18 17:55:00,55.5,51.7,29.96,SSW,199,4.0,8.0,87,0.00,,,0.00,Wunderground v.1.15,2013-03-18 21:55:00,
2013-03-18 18:00:00,55.3,51.8,29.96,SW,228,4.0,4.0,88,0.00,,,0.00,Wunderground v.1.15,2013-03-18 22:00:00,
2013-03-18 18:05:00,55.1,51.6,29.96,SSW,197,4.0,9.0,88,0.00,,,0.00,Wunderground v.1.15,2013-03-18 22:05:00,
2013-03-18 18:10:00,54.9,51.4,29.96,WSW,240,5.0,5.0,88,0.00,,,0.00,Wunderground v.1.15,2013-03-18 22:10:00,
2013-03-18 18:15:00,54.8,51.3,29.96,SSW,194,4.0,9.0,88,0.00,,,0.00,Wunderground v.1.15,2013-03-18 22:15:00,
2013-03-18 18:20:00,54.7,51.5,29.95,South,191,4.0,9.0,89,0.00,,,0.00,Wunderground v.1.15,2013-03-18 22:20:00,
2013-03-18 18:25:00,54.6,51.4,29.95,South,179,4.0,9.0,89,0.00,,,0.00,Wunderground v.1.15,2013-03-18 22:25:00,
2013-03-18 18:30:00,54.5,51.3,29.95,South,185,4.0,9.0,89,0.00,,,0.00,Wunderground v.1.15,2013-03-18 22:30:00,
2013-03-18 18:35:00,54.5,51.3,29.95,SE,129,4.0,9.0,89,0.00,,,0.00,Wunderground v.1.15,2013-03-18 22:35:00,
2013-03-18 18:40:00,54.6,51.4,29.95,South,191,3.0,9.0,89,0.00,,,0.00,Wunderground v.1.15,2013-03-18 22:40:00,
2013-03-18 18:45:00,54.7,51.5,29.94,SSE,148,2.0,9.0,89,0.00,,,0.00,Wunderground v.1.15,2013-03-18 22:45:00,
2013-03-18 18:50:00,54.6,51.4,29.94,SE,134,2.0,2.0,89,0.00,,,0.00,Wunderground v.1.15,2013-03-18 22:50:00,
2013-03-18 18:55:00,54.6,51.4,29.95,SSE,156,2.0,9.0,89,0.00,,,0.00,Wunderground v.1.15,2013-03-18 22:55:00,
2013-03-18 19:00:00,54.6,51.4,29.95,SE,141,2.0,2.0,89,0.00,,,0.00,Wunderground v.1.15,2013-03-18 23:00:00,
2013-03-18 19:05:00,54.6,51.4,29.94,SW,216,2.0,7.0,89,0.00,,,0.00,Wunderground v.1.15,2013-03-18 23:05:00,
2013-03-18 19:10:00,54.6,51.4,29.94,ESE,117,1.0,7.0,89,0.00,,,0.00,Wunderground v.1.15,2013-03-18 23:10:00,
2013-03-18 19:15:00,54.6,51.4,29.95,SSE,167,1.0,7.0,89,0.00,,,0.00,Wunderground v.1.15,2013-03-18 23:15:00,
2013-03-18 19:20:00,54.5,51.3,29.94,SSE,163,2.0,7.0,89,0.00,,,0.00,Wunderground v.1.15,2013-03-18 23:20:00,
2013-03-18 19:25:00,54.5,51.3,29.94,SSW,201,3.0,7.0,89,0.00,,,0.00,Wunderground v.1.15,2013-03-18 23:25:00,
2013-03-18 19:30:00,54.4,51.2,29.94,South,177,3.0,7.0,89,0.00,,,0.00,Wunderground v.1.15,2013-03-18 23:30:00,
2013-03-18 19:35:00,54.4,51.5,29.93,SSE,148,3.0,7.0,90,0.00,,,0.00,Wunderground v.1.15,2013-03-18 23:35:00,
2013-03-18 19:40:00,54.5,51.6,29.93,SE,140,2.0,7.0,90,0.00,,,0.00,Wunderground v.1.15,2013-03-18 23:40:00,
2013-03-18 19:45:00,54.5,51.6,29.93,SE,138,2.0,7.0,90,0.00,,,0.00,Wunderground v.1.15,2013-03-18 23:45:00,
2013-03-18 19:50:00,54.5,51.6,29.93,SSE,156,2.0,2.0,90,0.00,,,0.00,Wunderground v.1.15,2013-03-18 23:50:00,
2013-03-18 19:55:00,54.5,51.6,29.93,SSE,155,2.0,7.0,90,0.00,,,0.00,Wunderground v.1.15,2013-03-18 23:55:00,
2013-03-18 20:00:00,54.4,51.5,29.92,ESE,121,3.0,5.0,90,0.00,,,0.00,Wunderground v.1.15,2013-03-19 00:00:00,
2013-03-18 20:10:00,54.3,51.4,29.92,ESE,122,5.0,5.0,90,0.00,,,0.00,Wunderground v.1.15,2013-03-19 00:10:00,
2013-03-18 20:15:00,54.3,51.4,29.92,East,95,4.0,5.0,90,0.00,,,0.00,Wunderground v.1.15,2013-03-19 00:15:00,
2013-03-18 20:20:00,54.2,51.3,29.92,ESE,102,3.0,3.0,90,0.00,,,0.00,Wunderground v.1.15,2013-03-19 00:20:00,
2013-03-18 20:25:00,54.2,51.6,29.92,SE,134,2.0,5.0,91,0.00,,,0.00,Wunderground v.1.15,2013-03-19 00:25:00,
2013-03-18 20:30:00,54.1,51.5,29.92,SE,127,1.0,5.0,91,0.00,,,0.00,Wunderground v.1.15,2013-03-19 00:30:00,
2013-03-18 20:35:00,54.1,51.5,29.92,SE,129,1.0,5.0,91,0.00,,,0.00,Wunderground v.1.15,2013-03-19 00:35:00,
2013-03-18 20:40:00,54.1,51.5,29.92,SE,130,1.0,5.0,91,0.00,,,0.00,Wunderground v.1.15,2013-03-19 00:40:00,
2013-03-18 20:50:00,53.9,51.3,29.92,NE,53,1.0,1.0,91,0.00,,,0.00,Wunderground v.1.15,2013-03-19 00:50:00,
2013-03-18 20:55:00,53.9,51.3,29.92,SE,127,0.0,5.0,91,0.00,,,0.00,Wunderground v.1.15,2013-03-19 00:55:00,
2013-03-18 21:05:00,54.1,51.5,29.92,ESE,118,1.0,7.0,91,0.00,,,0.00,Wunderground v.1.15,2013-03-19 01:05:00,
2013-03-18 21:10:00,54.1,51.5,29.92,SE,127,2.0,2.0,91,0.00,,,0.00,Wunderground v.1.15,2013-03-19 01:10:00,
2013-03-18 21:15:00,54.1,51.5,29.92,SE,131,2.0,3.0,91,0.00,,,0.00,Wunderground v.1.15,2013-03-19 01:15:00,
2013-03-18 21:20:00,54.1,51.5,29.92,ESE,103,2.0,7.0,91,0.00,,,0.00,Wunderground v.1.15,2013-03-19 01:20:00,
2013-03-18 21:25:00,54.1,51.5,29.93,ESE,115,2.0,7.0,91,0.00,,,0.00,Wunderground v.1.15,2013-03-19 01:25:00,
2013-03-18 21:30:00,53.9,51.3,29.93,ESE,115,1.0,1.0,91,0.00,,,0.00,Wunderground v.1.15,2013-03-19 01:30:00,
2013-03-18 21:35:00,53.9,51.3,29.92,ESE,114,0.0,7.0,91,0.00,,,0.00,Wunderground v.1.15,2013-03-19 01:35:00,
2013-03-18 21:40:00,53.9,51.3,29.91,SE,145,0.0,7.0,91,0.00,,,0.00,Wunderground v.1.15,2013-03-19 01:40:00,
2013-03-18 21:50:00,54.0,51.7,29.90,ESE,117,1.0,7.0,92,0.00,,,0.00,Wunderground v.1.15,2013-03-19 01:50:00,
2013-03-18 21:55:00,54.0,51.7,29.90,East,91,1.0,7.0,92,0.00,,,0.00,Wunderground v.1.15,2013-03-19 01:55:00,
2013-03-18 22:00:00,54.0,51.7,29.90,East,94,1.0,1.0,92,0.00,,,0.00,Wunderground v.1.15,2013-03-19 02:00:00,
2013-03-18 22:05:00,54.0,51.7,29.90,East,91,0.0,4.0,92,0.00,,,0.00,Wunderground v.1.15,2013-03-19 02:05:00,
2013-03-18 22:10:00,54.2,51.9,29.89,East,95,1.0,4.0,92,0.00,,,0.00,Wunderground v.1.15,2013-03-19 02:10:00,
2013-03-18 22:15:00,54.3,52.0,29.89,ESE,117,2.0,4.0,92,0.00,,,0.00,Wunderground v.1.15,2013-03-19 02:15:00,
2013-03-18 22:20:00,54.3,52.0,29.88,SE,138,3.0,4.0,92,0.00,,,0.00,Wunderground v.1.15,2013-03-19 02:20:00,
2013-03-18 22:25:00,54.3,52.0,29.88,ESE,122,3.0,4.0,92,0.00,,,0.00,Wunderground v.1.15,2013-03-19 02:25:00,
2013-03-18 22:30:00,54.3,52.0,29.88,East,99,3.0,3.0,92,0.00,,,0.00,Wunderground v.1.15,2013-03-19 02:30:00,
2013-03-18 22:35:00,54.3,52.0,29.88,ENE,71,2.0,4.0,92,0.00,,,0.00,Wunderground v.1.15,2013-03-19 02:35:00,
2013-03-18 22:40:00,54.3,52.0,29.88,NE,56,1.0,4.0,92,0.00,,,0.00,Wunderground v.1.15,2013-03-19 02:40:00,
2013-03-18 22:45:00,54.3,52.0,29.89,ENE,76,1.0,4.0,92,0.00,,,0.00,Wunderground v.1.15,2013-03-19 02:45:00,
2013-03-18 22:50:00,54.4,52.1,29.89,NNW,327,1.0,4.0,92,0.00,,,0.00,Wunderground v.1.15,2013-03-19 02:50:00,
2013-03-18 22:55:00,54.6,52.3,29.90,NNE,15,1.0,4.0,92,0.00,,,0.00,Wunderground v.1.15,2013-03-19 02:55:00,
2013-03-18 23:00:00,54.7,52.4,29.90,NNW,333,2.0,5.0,92,0.00,,,0.00,Wunderground v.1.15,2013-03-19 03:00:00,
2013-03-18 23:05:00,54.9,52.6,29.90,NNW,327,2.0,5.0,92,0.00,,,0.00,Wunderground v.1.15,2013-03-19 03:05:00,
2013-03-18 23:10:00,55.0,52.7,29.90,NNE,30,2.0,2.0,92,0.00,,,0.00,Wunderground v.1.15,2013-03-19 03:10:00,
2013-03-18 23:15:00,55.1,52.8,29.89,NNE,15,1.0,5.0,92,0.00,,,0.00,Wunderground v.1.15,2013-03-19 03:15:00,
2013-03-18 23:20:00,55.1,52.8,29.89,NNE,15,0.0,5.0,92,0.00,,,0.00,Wunderground v.1.15,2013-03-19 03:20:00,
2013-03-18 23:25:00,55.2,52.9,29.90,NNW,343,1.0,5.0,92,0.00,,,0.00,Wunderground v.1.15,2013-03-19 03:25:00,
2013-03-18 23:30:00,55.2,52.9,29.89,North,349,2.0,5.0,92,0.00,,,0.00,Wunderground v.1.15,2013-03-19 03:30:00,
2013-03-18 23:35:00,55.1,52.8,29.90,North,4,2.0,5.0,92,0.00,,,0.00,Wunderground v.1.15,2013-03-19 03:35:00,
2013-03-18 23:40:00,55.1,52.8,29.89,North,350,2.0,2.0,92,0.00,,,0.00,Wunderground v.1.15,2013-03-19 03:40:00,
2013-03-18 23:45:00,55.1,52.8,29.89,North,355,2.0,5.0,92,0.00,,,0.00,Wunderground v.1.15,2013-03-19 03:45:00,
2013-03-18 23:50:00,55.1,52.8,29.89,North,6,1.0,5.0,92,0.00,,,0.00,Wunderground v.1.15,2013-03-19 03:50:00,
2013-03-18 23:55:00,55.0,52.7,29.89,NNE,13,1.0,5.0,92,0.00,,,0.00,Wunderground v.1.15,2013-03-19 03:55:00,